Terminal Aerodrome Forecast
Issued by NWS Louisville, KY

Home | Current Version | Previous Version | Text Only | Print | Product List | Glossary On
Versions: 1 2 3 4 5 6 7 8 9 10 11 12 13 14 15 16 17 18 19 20
785
FTUS43 KLMK 130520
TAFBWG
TAF
KBWG 130520Z 1306/1406 32010G15KT P6SM SCT040 BKN060
     FM130900 35005KT P6SM SCT250
     FM131400 35005KT P6SM FEW250=

USA.gov is the U.S. government's official web portal to all federal, state and local government web resources and services.